Time;durP1;ratioP1;P1;durP2;ratioP2;P2;SDS_P1;SDS_P2;PMS_P1;PMS_P2;Temp;Humidity;BMP_temperature;BMP_pressure;BME280_temperature;BME280_humidity;BME280_pressure;Samples;Min_cycle;Max_cycle;Signal;HPM_P1;HPM_P2
2021/12/03 00:01:23;;;;;;;1.77;1.60;;;0.60;99.90;;;;;;4817714;29;20047;-91
2021/12/03 00:03:49;;;;;;;1.85;1.45;;;-0.40;99.90;;;;;;4815825;29;20130;-91
2021/12/03 00:06:15;;;;;;;2.88;1.25;;;-0.40;99.90;;;;;;4772903;30;20059;-91
2021/12/03 00:08:43;;;;;;;2.03;1.57;;;-0.90;99.90;;;;;;4785887;30;20051;-91
2021/12/03 00:11:11;;;;;;;5.93;1.65;;;-0.40;99.90;;;;;;4802033;29;20498;-90
2021/12/03 00:13:40;;;;;;;1.25;1.15;;;0.60;99.90;;;;;;4801524;29;20357;-90
2021/12/03 00:16:07;;;;;;;2.15;1.00;;;0.50;99.90;;;;;;4787181;30;20417;-90
2021/12/03 00:18:36;;;;;;;1.17;1.13;;;0.80;99.90;;;;;;4801057;29;20051;-88
2021/12/03 00:21:10;;;;;;;3.78;2.03;;;0.60;99.90;;;;;;4787247;30;20051;-90
2021/12/03 00:23:36;;;;;;;8.05;1.40;;;-0.40;99.90;;;;;;4815678;29;20055;-90
2021/12/03 00:26:09;;;;;;;1.95;1.20;;;-0.10;99.90;;;;;;4787545;30;20082;-91
2021/12/03 00:28:36;;;;;;;1.38;1.27;;;0.20;99.90;;;;;;4786308;30;20394;-90
2021/12/03 00:31:03;;;;;;;2.70;1.98;;;-0.40;99.90;;;;;;4809118;29;20186;-91
2021/12/03 00:33:31;;;;;;;1.20;1.13;;;-0.10;99.90;;;;;;4786237;30;20048;-91
2021/12/03 00:35:59;;;;;;;2.65;1.10;;;-0.40;99.90;;;;;;4816642;29;20051;-91
2021/12/03 00:38:25;;;;;;;1.10;0.82;;;-0.40;99.90;;;;;;4801465;29;20052;-91
2021/12/03 00:40:51;;;;;;;1.60;1.43;;;-0.40;99.90;;;;;;4801336;29;20051;-91
2021/12/03 00:43:24;;;;;;;2.10;1.42;;;0.80;99.90;;;;;;4785899;30;20063;-91
2021/12/03 00:45:51;;;;;;;1.05;1.05;;;0.20;99.90;;;;;;4801625;29;20148;-91
2021/12/03 00:48:20;;;;;;;4.55;1.77;;;0.30;99.90;;;;;;4786271;30;20054;-91
2021/12/03 00:50:45;;;;;;;2.72;1.65;;;-0.30;99.90;;;;;;4800601;29;20196;-91
2021/12/03 00:53:17;;;;;;;2.07;1.03;;;0.70;99.90;;;;;;4786323;30;20134;-90
2021/12/03 00:55:43;;;;;;;9.63;2.08;;;-0.20;99.90;;;;;;4801363;29;20065;-91
2021/12/03 00:58:09;;;;;;;5.30;1.87;;;0.50;99.90;;;;;;4786468;30;20051;-91
2021/12/03 01:00:35;;;;;;;4.60;1.75;;;-0.30;99.90;;;;;;4801356;29;20047;-91
2021/12/03 01:03:02;;;;;;;9.80;2.20;;;-1.00;99.90;;;;;;4769928;30;20393;-92
2021/12/03 01:05:29;;;;;;;3.90;2.65;;;0.40;99.90;;;;;;4786487;30;20055;-91
2021/12/03 01:07:55;;;;;;;3.13;2.38;;;0.20;99.90;;;;;;4800830;29;20047;-91
2021/12/03 01:10:21;;;;;;;4.37;2.40;;;0.70;99.90;;;;;;4802022;29;20047;-91
2021/12/03 01:12:47;;;;;;;7.28;3.08;;;-0.10;99.90;;;;;;4785454;30;20586;-92
2021/12/03 01:15:18;;;;;;;6.75;3.30;;;0.90;99.90;;;;;;4801603;29;20120;-92
2021/12/03 01:17:44;;;;;;;4.43;2.38;;;0.90;99.90;;;;;;4785385;30;20043;-92
2021/12/03 01:20:11;;;;;;;4.63;4.00;;;-0.30;99.90;;;;;;4800930;29;20051;-93
2021/12/03 01:22:38;;;;;;;6.63;2.55;;;0.00;99.90;;;;;;4785985;30;20047;-92
2021/12/03 01:25:04;;;;;;;;;;;1.20;99.90;;;;;;4785654;30;20048;-91
2021/12/03 01:27:32;;;;;;;2.40;2.20;;;0.00;99.90;;;;;;4779205;30;20301;-92
2021/12/03 01:29:58;;;;;;;3.50;2.25;;;0.60;99.90;;;;;;4755837;30;20055;-93
2021/12/03 01:32:24;;;;;;;5.80;4.03;;;-0.60;99.90;;;;;;4800948;29;20396;-92
2021/12/03 01:34:49;;;;;;;5.07;2.73;;;0.10;99.90;;;;;;4784856;30;20086;-92
2021/12/03 01:37:15;;;;;;;4.30;3.00;;;0.80;99.90;;;;;;4786552;30;20055;-92
2021/12/03 01:39:41;;;;;;;12.10;3.03;;;-0.20;99.90;;;;;;4797826;29;20060;-89
2021/12/03 01:42:07;;;;;;;3.63;3.27;;;0.10;99.90;;;;;;4800895;29;20086;-92
2021/12/03 01:44:33;;;;;;;5.68;2.75;;;0.10;99.90;;;;;;4781845;29;20066;-92
2021/12/03 01:46:59;;;;;;;4.00;2.40;;;0.10;99.90;;;;;;4814833;29;20055;-92
2021/12/03 01:49:25;;;;;;;6.60;2.93;;;0.60;99.90;;;;;;4801089;29;20054;-92
2021/12/03 01:51:55;;;;;;;5.97;3.20;;;0.10;99.90;;;;;;4785872;29;20062;-92
2021/12/03 01:54:23;;;;;;;3.38;2.03;;;0.10;99.90;;;;;;4785814;30;20054;-93
2021/12/03 01:56:49;;;;;;;5.85;3.25;;;1.30;99.90;;;;;;4785005;30;20224;-93
2021/12/03 01:59:15;;;;;;;10.53;3.90;;;0.20;99.90;;;;;;4800977;29;20217;-92
2021/12/03 02:01:41;;;;;;;3.95;3.08;;;0.80;99.90;;;;;;4800350;29;20128;-92
2021/12/03 02:04:07;;;;;;;5.50;3.43;;;0.10;99.90;;;;;;4800322;29;20266;-92
2021/12/03 02:06:33;;;;;;;5.95;3.22;;;0.90;99.90;;;;;;4801154;29;20055;-93
2021/12/03 02:09:00;;;;;;;4.37;3.67;;;0.90;99.90;;;;;;4785247;30;20043;-92
2021/12/03 02:11:27;;;;;;;10.15;5.35;;;0.20;99.90;;;;;;4771104;30;20051;-93
2021/12/03 02:13:56;;;;;;;6.85;3.33;;;0.30;99.90;;;;;;4800068;29;20153;-92
2021/12/03 02:16:22;;;;;;;12.82;3.58;;;1.00;99.90;;;;;;4785903;30;20059;-93
2021/12/03 02:18:48;;;;;;;7.85;4.88;;;0.50;99.90;;;;;;4785097;30;20402;-89
2021/12/03 02:21:16;;;;;;;17.92;4.30;;;0.30;99.90;;;;;;4798450;29;20526;-93
2021/12/03 02:23:42;;;;;;;6.38;4.45;;;0.50;99.90;;;;;;4800966;29;20055;-92
2021/12/03 02:26:09;;;;;;;10.25;6.60;;;1.20;99.90;;;;;;4784898;29;20050;-92
2021/12/03 02:28:37;;;;;;;;;;;1.60;99.90;;;;;;4784625;30;20061;-92
2021/12/03 02:31:04;;;;;;;10.63;5.33;;;1.00;99.90;;;;;;4770557;30;19925;-92
2021/12/03 02:33:34;;;;;;;11.63;4.82;;;0.30;99.90;;;;;;4816025;29;20293;-92
2021/12/03 02:36:00;;;;;;;8.80;5.60;;;0.30;99.90;;;;;;4799890;29;20047;-93
2021/12/03 02:38:26;;;;;;;10.27;5.90;;;0.30;99.90;;;;;;4770717;30;20174;-92
2021/12/03 02:40:54;;;;;;;13.18;7.75;;;0.30;99.90;;;;;;4799598;29;20079;-92
2021/12/03 02:43:20;;;;;;;13.15;8.35;;;1.30;99.90;;;;;;4764342;29;20146;-93
2021/12/03 02:45:46;;;;;;;9.75;6.43;;;0.40;99.90;;;;;;4803580;29;20066;-93
2021/12/03 02:48:12;;;;;;;8.13;6.33;;;0.30;99.90;;;;;;4787569;29;20490;-93
2021/12/03 02:50:38;;;;;;;10.70;7.65;;;0.30;99.90;;;;;;4788584;29;20830;-93
2021/12/03 02:53:04;;;;;;;10.50;6.72;;;0.60;99.90;;;;;;4785126;29;20054;-92
2021/12/03 02:55:30;;;;;;;14.95;8.77;;;1.30;99.90;;;;;;4804579;29;20046;-93
2021/12/03 02:57:59;;;;;;;12.55;8.30;;;0.90;99.90;;;;;;4791885;29;20487;-93
2021/12/03 03:00:28;;;;;;;14.45;9.77;;;0.20;99.90;;;;;;4816776;29;20086;-93
2021/12/03 03:02:54;;;;;;;16.48;8.32;;;1.40;99.90;;;;;;4821907;29;20376;-89
2021/12/03 03:05:23;;;;;;;15.23;8.93;;;0.30;99.90;;;;;;4821723;29;20137;-91
2021/12/03 03:07:49;;;;;;;13.90;8.02;;;0.30;99.90;;;;;;4791117;29;20414;-91
2021/12/03 03:10:18;;;;;;;15.05;10.30;;;0.40;99.90;;;;;;4791085;29;20054;-92
2021/12/03 03:12:45;;;;;;;13.00;7.93;;;0.30;99.90;;;;;;4806931;29;20157;-92
2021/12/03 03:15:12;;;;;;;11.05;9.50;;;1.00;99.90;;;;;;4821139;29;20074;-92
2021/12/03 03:17:38;;;;;;;;;;;0.90;99.90;;;;;;4792123;29;20047;-92
2021/12/03 03:20:07;;;;;;;10.10;7.55;;;0.30;99.90;;;;;;4790446;29;19929;-93
2021/12/03 03:22:34;;;;;;;10.73;8.10;;;0.30;99.90;;;;;;4788008;30;20043;-92
2021/12/03 03:25:00;;;;;;;8.32;7.47;;;1.30;99.90;;;;;;4786605;29;20058;-92
2021/12/03 03:27:29;;;;;;;12.40;8.55;;;0.30;99.90;;;;;;4791679;29;20107;-92
2021/12/03 03:29:55;;;;;;;14.18;8.52;;;0.30;99.90;;;;;;4785226;29;20503;-92
2021/12/03 03:32:22;;;;;;;14.98;8.55;;;1.50;99.90;;;;;;4806135;29;20063;-92
2021/12/03 03:34:50;;;;;;;14.65;8.15;;;0.30;99.90;;;;;;4820740;29;20421;-92
2021/12/03 03:37:17;;;;;;;10.73;8.02;;;0.30;99.90;;;;;;4805659;29;20047;-92
2021/12/03 03:39:44;;;;;;;12.32;7.18;;;0.30;99.90;;;;;;4820741;29;20159;-92
2021/12/03 03:42:10;;;;;;;11.25;8.57;;;1.40;99.90;;;;;;4791243;29;20051;-93
2021/12/03 03:44:36;;;;;;;10.20;7.87;;;0.30;99.90;;;;;;4804480;29;20061;-93
2021/12/03 03:47:04;;;;;;;17.13;8.55;;;0.30;99.90;;;;;;4806187;29;20133;-93
2021/12/03 03:49:33;;;;;;;10.13;7.50;;;0.30;99.90;;;;;;4792437;30;20054;-91
2021/12/03 03:51:59;;;;;;;13.32;8.30;;;1.00;99.90;;;;;;4834027;29;20058;-89
2021/12/03 03:54:28;;;;;;;12.65;7.53;;;0.30;99.90;;;;;;4817196;29;20115;-91
2021/12/03 03:56:54;;;;;;;15.95;7.85;;;0.30;99.90;;;;;;4813601;29;20078;-91
2021/12/03 03:59:20;;;;;;;16.67;7.00;;;0.90;99.90;;;;;;4795732;29;20078;-94
2021/12/03 04:01:48;;;;;;;13.00;8.05;;;0.90;99.90;;;;;;4821000;29;20058;-93
2021/12/03 04:04:14;;;;;;;13.02;8.40;;;1.50;99.90;;;;;;4805484;29;20058;-91
2021/12/03 04:06:42;;;;;;;10.07;7.27;;;0.80;99.90;;;;;;4820974;29;20411;-93
2021/12/03 04:09:10;;;;;;;10.68;8.18;;;0.70;99.90;;;;;;4786936;29;20359;-93
2021/12/03 04:11:36;;;;;;;13.10;8.90;;;0.30;99.90;;;;;;4791174;29;20454;-92
2021/12/03 04:14:02;;;;;;;12.33;9.17;;;0.30;99.90;;;;;;4819928;29;20116;-89
2021/12/03 04:16:28;;;;;;;11.27;7.50;;;0.70;99.90;;;;;;4805423;29;20297;-92
2021/12/03 04:18:54;;;;;;;10.60;6.88;;;0.30;99.90;;;;;;4805205;29;20130;-92
2021/12/03 04:21:21;;;;;;;11.17;7.53;;;0.30;99.90;;;;;;4789771;29;20042;-92
2021/12/03 04:23:47;;;;;;;12.20;7.95;;;0.30;99.90;;;;;;4777500;29;20199;-92
2021/12/03 04:26:13;;;;;;;19.05;8.95;;;-0.60;99.90;;;;;;4775383;29;20059;-93
2021/12/03 04:28:39;;;;;;;12.13;8.40;;;1.10;99.90;;;;;;4805526;29;20077;-92
2021/12/03 04:31:05;;;;;;;16.40;10.97;;;1.20;99.90;;;;;;4820272;29;20055;-90
2021/12/03 04:33:31;;;;;;;14.20;8.13;;;0.30;99.90;;;;;;4776033;29;20304;-93
2021/12/03 04:36:03;;;;;;;19.55;8.38;;;1.00;99.90;;;;;;4805781;29;20204;-93
2021/12/03 04:38:29;;;;;;;12.15;7.47;;;0.30;99.90;;;;;;4820078;29;20049;-92
2021/12/03 04:40:55;;;;;;;21.97;8.90;;;0.30;99.90;;;;;;4820929;29;20502;-92
2021/12/03 04:43:21;;;;;;;13.57;8.00;;;0.70;99.90;;;;;;4804468;29;20062;-93
2021/12/03 04:45:47;;;;;;;11.10;7.53;;;0.20;99.90;;;;;;4789939;29;20086;-93
2021/12/03 04:48:16;;;;;;;15.20;8.27;;;0.30;99.90;;;;;;4786793;29;20089;-91
2021/12/03 04:50:42;;;;;;;10.07;7.43;;;0.30;99.90;;;;;;4820122;29;20061;-93
2021/12/03 04:53:09;;;;;;;10.95;8.63;;;1.00;99.90;;;;;;4820057;29;20541;-89
2021/12/03 04:55:35;;;;;;;;;;;0.20;99.90;;;;;;4790689;29;20054;-93
2021/12/03 04:58:01;;;;;;;10.88;6.28;;;0.30;99.90;;;;;;4790123;29;20008;-92
2021/12/03 05:00:43;;;;;;;10.40;6.78;;;0.30;99.90;;;;;;4789136;29;20057;-93
2021/12/03 05:03:09;;;;;;;9.68;6.25;;;0.20;99.90;;;;;;4819654;29;20113;-90
2021/12/03 05:05:37;;;;;;;13.68;7.97;;;0.30;99.90;;;;;;4789770;29;20051;-93
2021/12/03 05:08:07;;;;;;;12.75;6.32;;;0.30;99.90;;;;;;4818625;29;20092;-92
2021/12/03 05:10:36;;;;;;;12.73;7.47;;;0.90;99.90;;;;;;4803642;29;20514;-93
2021/12/03 05:13:06;;;;;;;8.77;7.50;;;1.40;99.90;;;;;;4804815;29;20053;-93
2021/12/03 05:15:33;;;;;;;16.92;8.30;;;0.30;99.90;;;;;;4819077;29;20422;-94
2021/12/03 05:17:59;;;;;;;11.40;8.45;;;0.30;99.90;;;;;;4804522;29;20055;-92
2021/12/03 05:20:27;;;;;;;10.50;7.20;;;0.30;99.90;;;;;;4788884;29;20058;-93
2021/12/03 05:22:53;;;;;;;18.77;8.45;;;0.20;99.90;;;;;;4774534;29;20161;-92
2021/12/03 05:25:20;;;;;;;11.75;7.68;;;1.40;99.90;;;;;;4789128;29;20134;-93
2021/12/03 05:27:46;;;;;;;;;;;0.30;99.90;;;;;;4804326;29;20070;-94
2021/12/03 05:30:12;;;;;;;8.15;5.70;;;0.40;99.90;;;;;;4803788;29;19925;-90
2021/12/03 05:32:38;;;;;;;12.93;7.30;;;0.20;99.90;;;;;;4774686;29;20055;-92
2021/12/03 05:35:06;;;;;;;10.93;8.23;;;0.30;99.90;;;;;;4804604;29;20082;-93
2021/12/03 05:37:32;;;;;;;8.98;7.45;;;0.30;99.90;;;;;;4803817;29;20301;-92
2021/12/03 05:39:58;;;;;;;12.60;8.53;;;1.20;99.90;;;;;;4774838;29;20051;-91
2021/12/03 05:42:23;;;;;;;14.35;8.93;;;0.40;99.90;;;;;;4803982;29;20055;-92
2021/12/03 05:44:49;;;;;;;8.82;6.47;;;0.30;99.90;;;;;;4781916;30;20055;-92
2021/12/03 05:47:15;;;;;;;11.97;7.57;;;1.40;99.90;;;;;;4782956;30;20241;-91
2021/12/03 05:49:41;;;;;;;11.23;7.43;;;0.70;99.90;;;;;;4801252;29;20414;-92
2021/12/03 05:52:07;;;;;;;10.07;6.77;;;0.40;99.90;;;;;;4812599;29;20058;-93
2021/12/03 05:54:33;;;;;;;10.75;7.20;;;0.40;99.90;;;;;;4800762;29;20055;-94
2021/12/03 05:56:59;;;;;;;10.02;7.45;;;1.60;99.90;;;;;;4792085;29;20059;-94
2021/12/03 05:59:25;;;;;;;11.05;6.60;;;1.50;99.90;;;;;;4777035;30;20499;-93
2021/12/03 06:01:51;;;;;;;12.40;8.13;;;1.60;99.90;;;;;;4786107;30;20059;-94
2021/12/03 06:04:17;;;;;;;9.27;6.22;;;0.90;99.90;;;;;;4800773;29;20498;-90
2021/12/03 06:06:43;;;;;;;17.07;7.13;;;1.60;99.90;;;;;;4801246;29;20078;-95
2021/12/03 06:09:09;;;;;;;11.07;7.93;;;0.50;99.90;;;;;;4815649;29;20147;-93
2021/12/03 06:11:34;;;;;;;21.83;9.70;;;0.50;99.90;;;;;;4816099;29;20078;-93
2021/12/03 06:14:00;;;;;;;10.10;6.87;;;0.50;99.90;;;;;;4815020;29;20048;-92
2021/12/03 06:16:29;;;;;;;18.75;10.18;;;0.60;99.90;;;;;;4785460;30;20051;-94
2021/12/03 06:18:54;;;;;;;9.45;6.20;;;1.50;99.90;;;;;;4783058;30;20059;-93
2021/12/03 06:21:20;;;;;;;11.43;7.17;;;-0.10;99.90;;;;;;4800507;29;20415;-93
2021/12/03 06:23:47;;;;;;;11.20;6.60;;;0.20;99.90;;;;;;4798208;29;20091;-93
2021/12/03 06:26:13;;;;;;;6.78;5.30;;;0.50;99.90;;;;;;4786706;29;20118;-94
2021/12/03 06:28:40;;;;;;;8.93;5.33;;;0.50;99.90;;;;;;4782334;30;20048;-93
2021/12/03 06:31:07;;;;;;;10.23;6.90;;;1.50;99.90;;;;;;4771446;30;20091;-92
2021/12/03 06:33:33;;;;;;;11.50;7.32;;;1.50;99.90;;;;;;4802939;29;20134;-93
2021/12/03 06:36:01;;;;;;;7.68;6.78;;;1.60;99.90;;;;;;4774951;30;20055;-94
2021/12/03 06:38:27;;;;;;;11.30;6.32;;;1.20;99.90;;;;;;4788750;30;20120;-93
2021/12/03 06:40:54;;;;;;;14.35;6.03;;;1.00;99.90;;;;;;4789563;30;20430;-93
2021/12/03 06:43:20;;;;;;;11.25;7.05;;;0.60;99.90;;;;;;4803823;29;20059;-90
2021/12/03 06:45:46;;;;;;;7.03;5.30;;;0.60;99.90;;;;;;4793833;29;20411;-93
2021/12/03 06:48:13;;;;;;;10.00;5.68;;;0.60;99.90;;;;;;4819314;29;20116;-93
2021/12/03 06:50:39;;;;;;;10.15;4.97;;;0.70;99.90;;;;;;4788536;30;20055;-93
2021/12/03 06:53:08;;;;;;;9.17;6.63;;;0.70;99.90;;;;;;4804400;29;20057;-93
2021/12/03 06:55:45;;;;;;;18.40;7.10;;;0.70;99.90;;;;;;4787921;30;20055;-93
2021/12/03 06:58:15;;;;;;;9.02;5.38;;;1.80;99.90;;;;;;4789241;30;20058;-93
2021/12/03 07:00:43;;;;;;;11.45;6.28;;;1.30;99.90;;;;;;4788202;30;20058;-93
2021/12/03 07:03:17;;;;;;;9.93;5.78;;;0.90;99.90;;;;;;4788968;30;20047;-94
2021/12/03 07:05:43;;;;;;;8.25;5.35;;;0.80;99.90;;;;;;4803307;29;20135;-93
2021/12/03 07:08:09;;;;;;;11.07;6.17;;;1.80;99.90;;;;;;4788381;30;20134;-94
2021/12/03 07:10:42;;;;;;;10.97;6.17;;;0.90;99.90;;;;;;4788213;30;20059;-94
2021/12/03 07:13:09;;;;;;;11.68;5.85;;;1.90;99.90;;;;;;4786429;29;20064;-94
2021/12/03 07:15:35;;;;;;;10.18;4.97;;;0.90;99.90;;;;;;4786594;30;20108;-94
2021/12/03 07:18:01;;;;;;;9.67;4.83;;;1.00;99.90;;;;;;4804026;29;20140;-96
2021/12/03 07:20:30;;;;;;;9.47;5.00;;;2.10;99.90;;;;;;4789278;30;20047;-91
2021/12/03 07:22:59;;;;;;;12.88;5.47;;;1.00;99.90;;;;;;4774215;30;20516;-95
2021/12/03 07:25:24;;;;;;;6.27;4.67;;;1.00;99.90;;;;;;4819122;29;20054;-91
2021/12/03 07:27:50;;;;;;;15.23;5.53;;;0.60;99.90;;;;;;4787595;30;20129;-91
2021/12/03 07:30:19;;;;;;;8.10;6.23;;;1.00;99.90;;;;;;4818404;29;20443;-91
2021/12/03 07:32:45;;;;;;;7.25;5.15;;;1.00;99.90;;;;;;4784571;30;20055;-92
2021/12/03 07:35:16;;;;;;;9.55;5.47;;;1.00;99.90;;;;;;4776291;30;20078;-92
2021/12/03 07:37:48;;;;;;;11.10;6.32;;;1.00;99.90;;;;;;4786742;30;20062;-90
2021/12/03 07:40:16;;;;;;;9.13;6.03;;;0.90;99.90;;;;;;4791095;29;20066;-84
2021/12/03 07:42:42;;;;;;;14.95;5.97;;;2.10;99.90;;;;;;4783315;29;20499;-84
2021/12/03 07:45:13;;;;;;;9.05;5.55;;;0.90;99.90;;;;;;4790286;29;20094;-84
2021/12/03 07:47:39;;;;;;;15.63;6.45;;;1.00;99.90;;;;;;4790376;29;20046;-84
2021/12/03 07:50:08;;;;;;;7.77;4.77;;;1.50;99.90;;;;;;4804605;29;20050;-84
2021/12/03 07:52:34;;;;;;;13.90;6.05;;;1.00;99.90;;;;;;4790640;29;20062;-85
2021/12/03 07:55:00;;;;;;;9.02;5.97;;;2.00;99.90;;;;;;4776102;29;20104;-84
2021/12/03 07:57:26;;;;;;;10.07;6.53;;;1.10;99.90;;;;;;4791166;29;20058;-83
2021/12/03 07:59:52;;;;;;;7.40;4.97;;;1.80;99.90;;;;;;4803099;29;20493;-83
2021/12/03 08:02:18;;;;;;;7.43;5.25;;;1.90;99.90;;;;;;4800138;29;20051;-91
2021/12/03 08:04:44;;;;;;;12.17;5.57;;;1.20;99.90;;;;;;4804767;29;20395;-87
2021/12/03 08:07:10;;;;;;;8.07;5.83;;;1.60;99.90;;;;;;4790087;29;20066;-95
2021/12/03 08:09:38;;;;;;;11.82;6.13;;;1.20;99.90;;;;;;4803749;29;20542;-90
2021/12/03 08:12:11;;;;;;;14.30;5.82;;;1.10;99.90;;;;;;4803889;29;20047;-90
2021/12/03 08:14:43;;;;;;;19.77;7.22;;;1.20;99.90;;;;;;4817697;29;20054;-89
2021/12/03 08:17:14;;;;;;;12.80;7.38;;;1.40;99.90;;;;;;4798956;29;20413;-91
2021/12/03 08:19:42;;;;;;;9.45;5.90;;;1.20;99.90;;;;;;4805139;29;20054;-88
2021/12/03 08:22:08;;;;;;;10.55;6.47;;;1.20;99.90;;;;;;4802251;29;20580;-83
2021/12/03 08:24:34;;;;;;;13.33;6.63;;;1.20;99.90;;;;;;4781658;29;20088;-90
2021/12/03 08:27:00;;;;;;;9.65;6.43;;;0.60;99.90;;;;;;4811260;29;20147;-88
2021/12/03 08:29:27;;;;;;;12.63;7.18;;;1.20;99.90;;;;;;4805798;29;20065;-88
2021/12/03 08:31:53;;;;;;;12.95;8.52;;;1.30;99.90;;;;;;4789948;29;20070;-89
2021/12/03 08:34:19;;;;;;;11.87;7.63;;;2.20;99.90;;;;;;4775198;29;20073;-88
2021/12/03 08:36:47;;;;;;;10.65;6.85;;;1.30;99.90;;;;;;4789543;29;20065;-88
2021/12/03 08:39:13;;;;;;;16.50;8.25;;;1.30;99.90;;;;;;4803905;29;20051;-89
2021/12/03 08:41:38;;;;;;;11.50;8.17;;;1.40;99.90;;;;;;4806158;29;20070;-90
2021/12/03 08:44:04;;;;;;;11.10;6.93;;;1.40;99.90;;;;;;4785795;29;20066;-88
2021/12/03 08:46:34;;;;;;;16.90;9.07;;;1.80;99.90;;;;;;4801003;29;20059;-89
2021/12/03 08:49:11;;;;;;;18.27;9.57;;;2.40;99.90;;;;;;4800552;29;20044;-89
2021/12/03 08:56:54;;;;;;;15.63;10.13;;;2.50;99.90;;;;;;4815816;29;20063;-90
2021/12/03 08:59:26;;;;;;;14.60;9.40;;;2.60;99.90;;;;;;4785965;30;20511;-91
2021/12/03 09:01:57;;;;;;;17.20;10.90;;;1.60;99.90;;;;;;4815015;29;20055;-90
2021/12/03 09:04:28;;;;;;;22.92;9.93;;;1.60;99.90;;;;;;4785304;29;20058;-88
2021/12/03 09:07:01;;;;;;;16.13;9.80;;;1.60;99.90;;;;;;4799678;29;20053;-89
2021/12/03 09:09:30;;;;;;;22.23;12.32;;;1.70;99.90;;;;;;4785412;30;20043;-88
2021/12/03 09:11:58;;;;;;;16.60;11.50;;;1.70;99.90;;;;;;4785008;30;20573;-90
2021/12/03 09:14:34;;;;;;;21.77;11.37;;;1.70;99.90;;;;;;4773221;29;20479;-90
2021/12/03 09:22:25;;;;;;;20.95;11.95;;;2.60;99.90;;;;;;4784935;29;20053;-89
2021/12/03 09:24:54;;;;;;;21.88;10.88;;;2.60;99.90;;;;;;4769713;30;20062;-89
2021/12/03 09:27:20;;;;;;;22.50;11.43;;;2.60;99.90;;;;;;4785606;30;20048;-88
2021/12/03 09:29:47;;;;;;;18.93;10.77;;;2.30;99.90;;;;;;4775529;30;20066;-89
2021/12/03 09:32:20;;;;;;;;;;;1.80;99.90;;;;;;4785156;29;20135;-91
2021/12/03 09:34:49;;;;;;;13.40;8.98;;;1.80;99.90;;;;;;4769829;30;19933;-89
2021/12/03 09:37:15;;;;;;;17.48;9.75;;;1.80;99.90;;;;;;4785185;30;20075;-89
2021/12/03 09:39:43;;;;;;;21.93;12.37;;;1.90;99.90;;;;;;4785499;29;20088;-90
2021/12/03 09:42:10;;;;;;;19.08;12.85;;;1.90;99.90;;;;;;4801145;29;20422;-91
2021/12/03 09:44:40;;;;;;;13.93;9.25;;;1.90;99.90;;;;;;4768595;29;20159;-91
2021/12/03 09:47:06;;;;;;;23.58;12.25;;;1.90;99.90;;;;;;4819115;29;20061;-90
2021/12/03 09:49:34;;;;;;;33.33;14.85;;;1.90;99.90;;;;;;4788994;29;20051;-91
2021/12/03 09:52:12;;;;;;;23.27;11.68;;;2.00;99.90;;;;;;4804008;29;20089;-86
2021/12/03 09:57:10;;;;;;;13.88;9.70;;;2.20;99.90;;;;;;4804004;29;20189;-91
2021/12/03 10:16:04;;;;;;;13.57;9.32;;;2.30;99.90;;;;;;4816824;29;20063;-91
2021/12/03 10:18:51;;;;;;;32.63;10.95;;;3.20;99.90;;;;;;4802707;29;20047;-91
2021/12/03 10:24:51;;;;;;;15.10;10.20;;;2.40;99.90;;;;;;4820504;29;20047;-93
2021/12/03 10:30:04;;;;;;;22.35;11.38;;;2.40;99.90;;;;;;4788638;29;20069;-93
2021/12/03 10:54:27;;;;;;;11.00;8.68;;;2.50;99.90;;;;;;4789421;29;20054;-91
2021/12/03 11:36:12;;;;;;;5.82;4.43;;;1.90;99.90;;;;;;4822042;29;20119;-88
2021/12/03 12:56:11;;;;;;;5.45;4.07;;;3.00;99.90;;;;;;4789573;29;20643;-89
2021/12/03 14:22:00;;;;;;;9.50;4.23;;;2.70;99.90;;;;;;4790983;29;20063;-91
2021/12/03 14:55:31;;;;;;;4.45;4.03;;;3.00;99.90;;;;;;4800149;29;20047;-94
2021/12/03 14:58:08;;;;;;;4.82;3.97;;;3.10;99.90;;;;;;4788230;30;20572;-93
2021/12/03 15:08:50;;;;;;;9.73;4.75;;;3.10;99.90;;;;;;4819182;29;20048;-95
2021/12/03 15:35:00;;;;;;;5.43;3.88;;;3.60;99.90;;;;;;4771936;30;20051;-92
2021/12/03 16:12:01;;;;;;;9.07;5.05;;;3.50;99.90;;;;;;4789973;29;20061;-93
2021/12/03 16:22:25;;;;;;;5.85;4.90;;;3.50;99.90;;;;;;4820258;29;20518;-95
2021/12/03 16:51:55;;;;;;;9.00;6.55;;;3.50;99.90;;;;;;4802225;29;20388;-94
2021/12/03 16:54:32;;;;;;;10.13;8.18;;;3.70;99.90;;;;;;4781059;29;20127;-88
2021/12/03 16:56:58;;;;;;;;;;;3.50;99.90;;;;;;4776038;29;20054;-90
2021/12/03 16:59:25;;;;;;;8.15;5.70;;;3.40;99.90;;;;;;4788640;29;19925;-89
2021/12/03 17:04:42;;;;;;;8.65;6.07;;;3.60;99.90;;;;;;4795545;29;20506;-93
2021/12/03 17:58:29;;;;;;;13.65;9.68;;;3.60;99.90;;;;;;4817483;29;20137;-86
2021/12/03 18:01:01;;;;;;;16.20;9.98;;;3.60;99.90;;;;;;4817085;29;20103;-85
2021/12/03 18:08:28;;;;;;;15.05;10.32;;;3.60;99.90;;;;;;4806053;29;20055;-87
2021/12/03 18:44:03;;;;;;;15.52;9.90;;;4.30;99.90;;;;;;4790185;29;20051;-87
2021/12/03 18:56:52;;;;;;;19.13;11.98;;;3.80;99.90;;;;;;4792135;29;20062;-87
2021/12/03 18:59:18;;;;;;;18.67;12.50;;;3.70;99.90;;;;;;4774982;29;20054;-88
2021/12/03 19:01:44;;;;;;;19.42;13.45;;;4.30;99.90;;;;;;4795493;29;20446;-88
2021/12/03 19:04:28;;;;;;;18.60;11.68;;;3.80;99.90;;;;;;4802543;29;20487;-87
2021/12/03 19:07:03;;;;;;;18.90;11.38;;;3.80;99.90;;;;;;4791359;29;20055;-90
2021/12/03 19:09:44;;;;;;;20.65;12.27;;;3.80;99.90;;;;;;4793043;29;20523;-91
2021/12/03 19:13:12;;;;;;;;;;;;;;;;;;;;;
2021/12/03 19:16:22;;;;;;;17.77;11.25;;;3.80;99.90;;;;;;4788503;29;20442;-91
2021/12/03 19:18:51;;;;;;;21.75;11.80;;;3.30;99.90;;;;;;4761362;29;20135;-88
2021/12/03 19:21:49;;;;;;;17.67;11.43;;;4.20;99.90;;;;;;4774767;29;20502;-89
2021/12/03 19:24:22;;;;;;;22.42;12.98;;;4.30;99.90;;;;;;4791101;29;20051;-89
2021/12/03 19:26:48;;;;;;;20.17;13.35;;;3.40;99.90;;;;;;4817319;29;20087;-87
2021/12/03 19:29:23;;;;;;;18.93;13.13;;;3.40;99.90;;;;;;4775691;29;20082;-88
2021/12/03 19:31:52;;;;;;;21.85;13.82;;;3.60;99.90;;;;;;4803617;29;20078;-88
2021/12/03 19:35:47;;;;;;;19.50;11.63;;;3.80;99.90;;;;;;4805128;29;20512;-90
2021/12/03 19:47:19;;;;;;;23.45;14.20;;;3.80;99.90;;;;;;4791227;29;20605;-88
2021/12/03 19:53:39;;;;;;;20.25;12.70;;;3.80;99.90;;;;;;4765378;30;20062;-90
2021/12/03 19:56:08;;;;;;;18.25;11.07;;;4.00;99.90;;;;;;4737693;30;20051;-89
2021/12/03 19:59:26;;;;;;;23.42;13.27;;;3.80;99.90;;;;;;4767265;29;20059;-91
2021/12/03 20:02:41;;;;;;;17.85;10.73;;;3.90;99.90;;;;;;4789465;29;20409;-90
2021/12/03 20:08:40;;;;;;;;;;;3.90;99.90;;;;;;4797878;29;20171;-92
2021/12/03 20:11:16;;;;;;;20.00;11.25;;;4.20;99.90;;;;;;4787003;29;19955;-88
2021/12/03 20:14:27;;;;;;;21.08;13.57;;;4.70;99.90;;;;;;4775257;29;20108;-91
2021/12/03 20:17:11;;;;;;;19.90;12.98;;;3.30;99.90;;;;;;4813359;29;20055;-91
2021/12/03 20:19:47;;;;;;;20.38;12.45;;;3.80;99.90;;;;;;4797526;29;20133;-89
2021/12/03 20:23:01;;;;;;;24.20;11.32;;;3.80;99.90;;;;;;4792172;29;20472;-87
2021/12/03 20:28:10;;;;;;;18.90;12.18;;;3.50;99.90;;;;;;4750804;30;20142;-92
2021/12/03 20:30:49;;;;;;;21.83;13.85;;;4.80;99.90;;;;;;4781341;29;20533;-91
2021/12/03 20:39:00;;;;;;;24.55;13.30;;;3.80;99.90;;;;;;4803903;29;20058;-90
2021/12/03 20:44:53;;;;;;;23.70;12.85;;;3.70;99.90;;;;;;4732139;30;20052;-86
2021/12/03 21:09:27;;;;;;;21.65;11.70;;;3.90;99.90;;;;;;4788936;29;20051;-92
2021/12/03 21:11:58;;;;;;;21.83;13.07;;;3.90;99.90;;;;;;4801427;29;20055;-87
2021/12/03 21:14:30;;;;;;;18.77;11.13;;;4.50;99.90;;;;;;4788564;29;20470;-86
2021/12/03 21:20:31;;;;;;;19.98;12.38;;;3.80;99.90;;;;;;4787271;29;20065;-85
2021/12/03 21:22:29;;;;;;;21.42;11.80;;;3.90;99.90;;;;;;4782153;29;20080;-85
2021/12/03 21:24:57;;;;;;;18.35;10.75;;;3.90;99.90;;;;;;4803257;29;20054;-85
2021/12/03 21:27:32;;;;;;;17.27;9.82;;;3.90;99.90;;;;;;4801683;29;20506;-85
2021/12/03 21:41:59;;;;;;;21.42;12.27;;;3.60;99.90;;;;;;4782512;29;20069;-86
2021/12/03 21:44:25;;;;;;;16.53;12.27;;;3.40;99.90;;;;;;4772377;29;20051;-85
2021/12/03 21:46:54;;;;;;;19.35;11.23;;;3.90;99.90;;;;;;4803006;29;20058;-89
2021/12/03 21:49:20;;;;;;;18.17;11.32;;;3.20;99.90;;;;;;4787570;29;20521;-84
2021/12/03 21:51:45;;;;;;;22.67;12.23;;;4.40;99.90;;;;;;4789256;29;20050;-87
2021/12/03 21:54:18;;;;;;;20.37;11.87;;;3.90;99.90;;;;;;4786700;29;20056;-86
2021/12/03 21:56:47;;;;;;;19.58;12.45;;;3.90;99.90;;;;;;4787550;29;20494;-85
2021/12/03 21:59:16;;;;;;;17.38;11.55;;;3.90;99.90;;;;;;4787265;29;20138;-86
2021/12/03 22:01:45;;;;;;;18.88;11.75;;;4.20;99.90;;;;;;4786732;29;20042;-88
2021/12/03 22:04:10;;;;;;;16.42;10.40;;;3.90;99.90;;;;;;4787518;29;20506;-86
2021/12/03 22:06:54;;;;;;;18.83;11.53;;;3.90;99.90;;;;;;4772098;29;20042;-88
2021/12/03 22:09:20;;;;;;;19.65;12.75;;;3.80;99.90;;;;;;4771240;29;20560;-86
2021/12/03 22:11:46;;;;;;;18.83;11.73;;;4.40;99.90;;;;;;4773856;29;20086;-85
2021/12/03 22:14:12;;;;;;;18.37;10.73;;;4.20;99.90;;;;;;4789393;29;20050;-87
2021/12/03 22:16:38;;;;;;;20.30;11.60;;;3.80;99.90;;;;;;4813957;29;20050;-86
2021/12/03 22:19:06;;;;;;;17.33;11.07;;;3.90;99.90;;;;;;4787261;29;20055;-85